Montebello, Canada
Current Conditions -  °F | °C
As of 9:00 AM on Thursday 23 Oct 2014 (Local Time) from CYND Reporting Station
Broken Clouds Broken Clouds  
Wind Chill: 43°   Ceiling: 2000
Heat Index: 43°   Visibility: 15mi
Dew Point: 36°   Wind: 3mph
Humidity: 76%   Direction: 360°N
Pressure: 30.13"   Gusts: NA
Location:  45.65°N, 74.93°W
Report Text: CYND 231300Z 36003KT 330V120 15SM BKN020 06/02 A3013 RMK SC7 SLP203
Loading
Personal Weather Stations






























Interactive Weather Map
Tropical Storm Tracking
New forecast layout! Learn more

10-Day Weather Forecast

Advertisements
Track Severe Weather on mobile